Time;durP1;ratioP1;P1;durP2;ratioP2;P2;SDS_P1;SDS_P2;PMS_P1;PMS_P2;Temp;Humidity;BMP_temperature;BMP_pressure;BME280_temperature;BME280_humidity;BME280_pressure;Samples;Min_cycle;Max_cycle;Signal;HPM_P1;HPM_P2
2023/10/24 00:00:54;;;;;;;6.57;1.30;;;26.00;99.90;;;;;;5068260;28;20196;-77
2023/10/24 00:03:25;;;;;;;5.78;1.10;;;26.00;99.90;;;;;;5065411;28;20255;-77
2023/10/24 00:05:56;;;;;;;5.20;1.20;;;26.20;99.90;;;;;;5081737;28;20573;-80
2023/10/24 00:08:27;;;;;;;8.23;1.30;;;26.30;99.90;;;;;;5087499;28;20241;-84
2023/10/24 00:11:03;;;;;;;3.03;1.10;;;26.40;99.90;;;;;;5078834;28;20196;-83
2023/10/24 00:13:36;;;;;;;5.25;1.00;;;26.50;99.90;;;;;;5084874;28;20640;-85
2023/10/24 00:16:07;;;;;;;5.20;1.13;;;26.60;99.90;;;;;;5082287;28;20196;-80
2023/10/24 00:18:38;;;;;;;10.82;1.50;;;26.90;99.90;;;;;;5081286;28;20219;-79
2023/10/24 00:21:09;;;;;;;3.60;1.17;;;27.00;99.90;;;;;;5081991;28;20901;-79
2023/10/24 00:23:40;;;;;;;5.82;1.27;;;27.20;99.90;;;;;;5074857;28;20222;-79
2023/10/24 00:26:11;;;;;;;5.53;1.10;;;27.30;99.90;;;;;;5081858;28;20224;-83
2023/10/24 00:28:43;;;;;;;4.90;1.23;;;27.40;99.90;;;;;;5074789;28;20200;-83
2023/10/24 00:31:14;;;;;;;4.18;1.70;;;27.40;99.90;;;;;;5083315;28;20230;-82
2023/10/24 00:33:45;;;;;;;3.45;0.95;;;27.50;99.90;;;;;;5080727;28;20223;-83
2023/10/24 00:36:16;;;;;;;16.75;2.03;;;27.60;99.90;;;;;;5082276;28;20200;-79
2023/10/24 00:38:47;;;;;;;3.05;1.20;;;27.80;99.90;;;;;;5079514;28;20204;-83
2023/10/24 00:41:18;;;;;;;11.18;1.55;;;27.90;99.90;;;;;;5077525;28;20287;-82
2023/10/24 00:43:51;;;;;;;8.27;1.20;;;28.10;99.90;;;;;;5070133;28;20228;-85
2023/10/24 00:46:22;;;;;;;2.92;0.70;;;28.20;99.90;;;;;;5076907;28;20731;-78
2023/10/24 00:48:53;;;;;;;15.52;1.45;;;28.30;99.90;;;;;;5078417;28;20197;-78
2023/10/24 00:51:24;;;;;;;53.40;3.75;;;28.50;99.90;;;;;;5077097;28;20562;-79
2023/10/24 00:53:57;;;;;;;16.38;1.67;;;28.80;99.90;;;;;;5077348;28;20216;-78
2023/10/24 00:56:28;;;;;;;3.25;1.00;;;28.90;99.90;;;;;;5080385;28;20196;-79
2023/10/24 00:59:03;;;;;;;3.50;0.75;;;29.00;99.90;;;;;;5080565;28;20315;-77
2023/10/24 01:01:35;;;;;;;7.65;1.17;;;29.10;99.90;;;;;;5078030;28;20206;-81
2023/10/24 01:04:06;;;;;;;34.92;3.40;;;29.30;99.90;;;;;;5082918;28;20564;-86
2023/10/24 01:06:38;;;;;;;4.63;1.00;;;29.50;99.90;;;;;;5080654;28;20246;-81
2023/10/24 01:09:09;;;;;;;5.68;1.50;;;29.40;99.90;;;;;;5080936;28;20220;-79
2023/10/24 01:11:40;;;;;;;3.08;1.25;;;29.30;99.90;;;;;;5085205;28;20200;-77
2023/10/24 01:14:14;;;;;;;3.88;0.98;;;29.20;99.90;;;;;;5087713;28;20235;-78
2023/10/24 01:16:48;;;;;;;3.42;1.25;;;29.20;99.90;;;;;;5076197;28;20678;-75
2023/10/24 01:19:20;;;;;;;3.05;1.30;;;29.50;99.90;;;;;;5078755;28;20224;-79
2023/10/24 01:21:53;;;;;;;6.10;1.52;;;29.40;99.90;;;;;;5082321;28;20561;-78
2023/10/24 01:24:24;;;;;;;4.50;1.30;;;29.50;99.90;;;;;;5080995;28;20203;-77
2023/10/24 01:26:59;;;;;;;5.75;1.55;;;29.40;99.90;;;;;;5080590;28;20573;-78
2023/10/24 01:29:30;;;;;;;24.30;2.17;;;29.40;99.90;;;;;;5075085;28;20222;-79
2023/10/24 01:32:01;;;;;;;5.30;1.38;;;29.50;99.90;;;;;;5070715;28;20192;-78
2023/10/24 01:34:32;;;;;;;30.30;3.17;;;29.30;99.90;;;;;;5081015;28;20226;-79
2023/10/24 01:37:05;;;;;;;4.13;1.42;;;29.40;99.90;;;;;;5078665;28;20247;-79
2023/10/24 01:39:36;;;;;;;6.15;1.50;;;29.40;99.90;;;;;;5078273;28;20228;-80
2023/10/24 01:42:07;;;;;;;4.40;1.35;;;29.30;99.90;;;;;;5077162;28;20233;-79
2023/10/24 01:44:38;;;;;;;7.95;1.70;;;29.10;99.90;;;;;;5074635;28;20653;-80
2023/10/24 01:47:09;;;;;;;7.65;1.48;;;29.30;99.90;;;;;;5080271;28;20202;-78
2023/10/24 01:49:40;;;;;;;4.68;1.50;;;29.40;99.90;;;;;;5080751;28;20254;-78
2023/10/24 01:52:13;;;;;;;4.93;1.77;;;29.40;99.90;;;;;;5077314;28;20279;-78
2023/10/24 01:54:43;;;;;;;5.75;1.60;;;29.40;99.90;;;;;;5069739;28;20693;-79
2023/10/24 01:57:14;;;;;;;3.85;1.20;;;29.60;99.90;;;;;;5077337;28;20204;-79
2023/10/24 01:59:45;;;;;;;6.85;1.63;;;29.30;99.90;;;;;;5074770;28;20228;-80
2023/10/24 02:02:16;;;;;;;5.32;1.60;;;29.10;99.90;;;;;;5071282;28;20238;-78
2023/10/24 02:04:47;;;;;;;5.82;1.55;;;28.80;99.90;;;;;;5079419;28;20549;-79
2023/10/24 02:07:20;;;;;;;6.85;1.40;;;28.60;99.90;;;;;;5075852;28;20567;-79
2023/10/24 02:09:50;;;;;;;4.70;1.60;;;28.60;99.90;;;;;;5080486;28;20216;-79
2023/10/24 02:12:21;;;;;;;6.22;1.60;;;28.70;99.90;;;;;;5081464;28;20591;-78
2023/10/24 02:14:52;;;;;;;6.70;1.77;;;28.40;99.90;;;;;;5079327;28;20213;-79
2023/10/24 02:17:23;;;;;;;7.53;1.58;;;28.40;99.90;;;;;;5078039;28;20610;-78
2023/10/24 02:19:54;;;;;;;3.58;1.30;;;28.10;99.90;;;;;;5080048;28;20249;-79
2023/10/24 02:22:27;;;;;;;3.65;1.52;;;28.00;99.90;;;;;;5083748;28;20268;-79
2023/10/24 02:24:59;;;;;;;5.43;1.50;;;27.80;99.90;;;;;;5088151;28;20698;-79
2023/10/24 02:27:31;;;;;;;9.15;2.00;;;27.70;99.90;;;;;;5079378;28;20567;-79
2023/10/24 02:30:02;;;;;;;8.15;1.65;;;27.50;99.90;;;;;;5082332;28;20688;-80
2023/10/24 02:32:33;;;;;;;8.75;1.88;;;27.50;99.90;;;;;;5077289;28;20262;-79
2023/10/24 02:35:04;;;;;;;5.60;1.50;;;27.40;99.90;;;;;;5088019;28;20674;-77
2023/10/24 02:37:36;;;;;;;8.57;2.00;;;27.20;99.90;;;;;;5077188;28;20200;-79
2023/10/24 02:40:10;;;;;;;4.55;1.58;;;27.20;99.90;;;;;;5081418;28;20543;-79
2023/10/24 02:42:41;;;;;;;3.83;1.40;;;27.40;99.90;;;;;;5084166;28;20208;-79
2023/10/24 02:45:12;;;;;;;7.50;1.48;;;27.40;99.90;;;;;;5084332;28;20197;-78
2023/10/24 02:47:43;;;;;;;6.20;1.50;;;27.40;99.90;;;;;;5084687;28;20623;-78
2023/10/24 02:50:14;;;;;;;5.78;1.50;;;27.30;99.90;;;;;;5084713;28;20207;-79
2023/10/24 02:52:47;;;;;;;5.25;1.90;;;27.20;99.90;;;;;;5079898;28;20231;-77
2023/10/24 02:55:18;;;;;;;8.23;2.00;;;27.20;99.90;;;;;;5084810;28;20211;-78
2023/10/24 02:57:49;;;;;;;8.25;1.95;;;27.00;99.90;;;;;;5084026;28;20193;-77
2023/10/24 03:00:20;;;;;;;4.85;1.90;;;27.00;99.90;;;;;;5074161;28;20259;-79
2023/10/24 03:02:51;;;;;;;9.63;2.17;;;27.00;99.90;;;;;;5079640;28;20196;-77
2023/10/24 03:05:21;;;;;;;5.90;1.88;;;26.70;99.90;;;;;;5084874;28;20667;-78
2023/10/24 03:07:55;;;;;;;5.22;2.00;;;26.80;99.90;;;;;;5085595;28;20659;-79
2023/10/24 03:10:25;;;;;;;6.60;2.47;;;26.90;99.90;;;;;;5080710;28;20227;-77
2023/10/24 03:12:57;;;;;;;9.13;2.15;;;26.90;99.90;;;;;;5078249;28;20276;-79
2023/10/24 03:15:27;;;;;;;3.45;1.98;;;26.90;99.90;;;;;;5078397;28;20738;-78
2023/10/24 03:17:58;;;;;;;7.65;2.13;;;26.70;99.90;;;;;;5080300;28;20232;-78
2023/10/24 03:20:29;;;;;;;6.72;1.90;;;26.70;99.90;;;;;;5080323;28;20236;-77
2023/10/24 03:23:02;;;;;;;5.75;1.92;;;26.70;99.90;;;;;;5082505;28;20279;-77
2023/10/24 03:25:36;;;;;;;4.78;2.03;;;26.90;99.90;;;;;;5080206;28;20601;-77
2023/10/24 03:28:07;;;;;;;5.45;1.98;;;26.90;99.90;;;;;;5080259;28;20197;-78
2023/10/24 03:30:38;;;;;;;8.55;2.33;;;26.90;99.90;;;;;;5080425;28;20225;-77
2023/10/24 03:33:08;;;;;;;7.25;2.33;;;26.80;99.90;;;;;;5081326;28;20708;-78
2023/10/24 03:35:39;;;;;;;3.60;2.45;;;26.80;99.90;;;;;;5078762;28;20192;-78
2023/10/24 03:38:12;;;;;;;6.57;2.50;;;27.00;99.90;;;;;;5081302;28;20691;-78
2023/10/24 03:40:43;;;;;;;6.57;3.20;;;27.30;99.90;;;;;;5086300;28;20244;-78
2023/10/24 03:43:14;;;;;;;8.85;3.15;;;27.20;99.90;;;;;;5082502;28;20197;-78
2023/10/24 03:45:45;;;;;;;8.43;3.78;;;27.10;99.90;;;;;;5083290;28;20254;-80
2023/10/24 03:48:16;;;;;;;5.15;3.17;;;27.20;99.90;;;;;;5083718;28;20537;-78
2023/10/24 03:50:47;;;;;;;8.15;3.20;;;27.00;99.90;;;;;;5081749;28;20193;-78
2023/10/24 03:53:20;;;;;;;9.63;3.50;;;27.00;99.90;;;;;;5082929;28;20292;-77
2023/10/24 03:55:59;;;;;;;7.90;3.83;;;27.10;99.90;;;;;;5081032;28;20244;-78
2023/10/24 03:58:30;;;;;;;5.70;3.42;;;27.00;99.90;;;;;;5084765;28;20254;-78
2023/10/24 04:01:06;;;;;;;7.00;4.05;;;27.10;99.90;;;;;;5081860;28;20202;-78
2023/10/24 04:03:37;;;;;;;10.45;3.88;;;27.00;99.90;;;;;;5071859;28;20228;-77
2023/10/24 04:06:12;;;;;;;7.75;3.83;;;27.10;99.90;;;;;;5082031;28;20617;-78
2023/10/24 04:08:45;;;;;;;9.15;3.75;;;27.10;99.90;;;;;;5072065;28;20218;-77
2023/10/24 04:11:19;;;;;;;7.72;3.40;;;27.00;99.90;;;;;;5076309;28;20283;-78
2023/10/24 04:13:50;;;;;;;8.73;3.45;;;26.90;99.90;;;;;;5077750;28;20220;-79
2023/10/24 04:16:21;;;;;;;9.05;4.40;;;26.90;99.90;;;;;;5072355;28;20204;-76
2023/10/24 04:18:52;;;;;;;9.18;3.50;;;26.80;99.90;;;;;;5078037;28;20199;-79
2023/10/24 04:21:23;;;;;;;10.23;3.75;;;26.80;99.90;;;;;;5083339;28;20694;-78
2023/10/24 04:23:56;;;;;;;8.20;3.47;;;26.70;99.90;;;;;;5080446;28;20597;-77
2023/10/24 04:26:30;;;;;;;8.93;3.70;;;26.60;99.90;;;;;;5081911;28;20565;-78
2023/10/24 04:29:01;;;;;;;12.65;3.70;;;26.50;99.90;;;;;;5081920;28;20220;-78
2023/10/24 04:31:32;;;;;;;12.52;3.60;;;26.50;99.90;;;;;;5079908;28;20238;-78
2023/10/24 04:34:03;;;;;;;14.75;4.32;;;26.50;99.90;;;;;;5079948;28;20212;-76
2023/10/24 04:36:35;;;;;;;6.90;3.15;;;26.40;99.90;;;;;;5082870;28;20199;-78
2023/10/24 04:39:14;;;;;;;10.00;3.70;;;26.50;99.90;;;;;;5079685;28;20615;-78
2023/10/24 04:41:47;;;;;;;8.35;3.38;;;26.40;99.90;;;;;;5082113;28;20196;-77
2023/10/24 04:44:21;;;;;;;7.53;3.03;;;26.20;99.90;;;;;;5079054;28;20295;-78
2023/10/24 04:46:56;;;;;;;8.80;3.10;;;26.20;99.90;;;;;;5082566;28;20191;-78
2023/10/24 04:49:27;;;;;;;10.10;3.20;;;26.20;99.90;;;;;;5083139;28;20238;-76
2023/10/24 04:52:01;;;;;;;7.55;3.65;;;26.10;99.90;;;;;;5081953;28;20189;-77
2023/10/24 04:54:37;;;;;;;8.98;3.08;;;26.10;99.90;;;;;;5083183;28;20723;-76
2023/10/24 04:57:08;;;;;;;8.40;3.33;;;26.00;99.90;;;;;;5079862;28;20200;-77
2023/10/24 04:59:39;;;;;;;9.15;3.30;;;25.90;99.90;;;;;;5084349;28;20236;-78
2023/10/24 05:02:10;;;;;;;8.77;3.03;;;26.00;99.90;;;;;;5083463;28;20279;-77
2023/10/24 05:04:59;;;;;;;8.93;3.22;;;25.90;99.90;;;;;;5053685;28;20209;-76
2023/10/24 05:07:33;;;;;;;8.32;3.10;;;25.80;99.90;;;;;;5078086;28;20197;-77
2023/10/24 05:10:06;;;;;;;10.38;3.00;;;25.90;99.90;;;;;;5083699;28;20187;-79
2023/10/24 05:12:37;;;;;;;10.55;3.25;;;25.80;99.90;;;;;;5077819;28;20189;-76
2023/10/24 05:15:09;;;;;;;11.35;2.90;;;25.80;99.90;;;;;;5073777;28;20609;-76
2023/10/24 05:17:45;;;;;;;8.85;3.05;;;25.70;99.90;;;;;;5078707;28;20220;-75
2023/10/24 05:20:19;;;;;;;9.57;3.10;;;25.70;99.90;;;;;;5079179;28;20593;-75
2023/10/24 05:22:50;;;;;;;6.72;2.88;;;25.60;99.90;;;;;;5077653;28;20277;-77
2023/10/24 05:25:23;;;;;;;8.43;3.00;;;25.70;99.90;;;;;;5078526;28;20728;-77
2023/10/24 05:27:53;;;;;;;10.50;3.60;;;25.90;99.90;;;;;;5081132;28;20279;-76
2023/10/24 05:30:24;;;;;;;9.18;3.10;;;25.90;99.90;;;;;;5081427;28;20295;-76
2023/10/24 05:32:58;;;;;;;9.77;2.70;;;25.80;99.90;;;;;;5074159;28;20197;-78
2023/10/24 05:35:29;;;;;;;9.15;2.92;;;25.70;99.90;;;;;;5081882;28;20231;-76
2023/10/24 05:38:00;;;;;;;9.15;3.15;;;25.60;99.90;;;;;;5080579;28;20571;-77
2023/10/24 05:40:33;;;;;;;7.38;2.80;;;25.70;99.90;;;;;;5081643;28;20256;-77
2023/10/24 05:43:04;;;;;;;10.43;2.85;;;25.60;99.90;;;;;;5077310;28;20272;-76
2023/10/24 05:45:35;;;;;;;10.60;3.35;;;25.70;99.90;;;;;;5078940;28;20612;-77
2023/10/24 05:48:06;;;;;;;12.98;3.05;;;25.80;99.90;;;;;;5078855;28;20708;-78
2023/10/24 05:50:39;;;;;;;13.52;3.40;;;25.70;99.90;;;;;;5082049;28;20565;-77
2023/10/24 05:53:09;;;;;;;11.90;2.75;;;25.70;99.90;;;;;;5080747;28;20552;-77
2023/10/24 05:55:45;;;;;;;10.45;2.90;;;25.70;99.90;;;;;;5086742;28;20261;-77
2023/10/24 05:58:19;;;;;;;10.88;2.97;;;25.70;99.90;;;;;;5076605;28;20188;-76
2023/10/24 06:00:51;;;;;;;6.85;2.90;;;25.60;99.90;;;;;;5078119;28;20192;-76
2023/10/24 06:03:22;;;;;;;11.40;3.05;;;25.60;99.90;;;;;;5084363;28;20185;-76
2023/10/24 06:05:53;;;;;;;8.40;2.97;;;25.60;99.90;;;;;;5086281;28;20192;-77
2023/10/24 06:08:24;;;;;;;10.00;3.25;;;25.40;99.90;;;;;;5089857;28;20255;-77
2023/10/24 06:11:04;;;;;;;11.65;3.65;;;25.30;99.90;;;;;;5079143;28;20193;-76
2023/10/24 06:13:35;;;;;;;11.88;2.78;;;25.30;99.90;;;;;;5086229;28;20539;-77
2023/10/24 06:16:16;;;;;;;7.22;3.22;;;25.20;99.90;;;;;;5083241;28;20216;-75
2023/10/24 06:18:52;;;;;;;10.98;3.03;;;25.20;99.90;;;;;;5086559;28;20237;-77
2023/10/24 06:21:23;;;;;;;8.07;3.17;;;25.10;99.90;;;;;;5085099;28;20201;-77
2023/10/24 06:23:54;;;;;;;11.05;3.45;;;25.00;99.90;;;;;;5083275;28;20185;-76
2023/10/24 06:26:26;;;;;;;12.55;3.25;;;25.00;99.90;;;;;;5083803;28;20185;-76
2023/10/24 06:28:57;;;;;;;8.88;3.13;;;25.00;99.90;;;;;;5082320;28;20212;-76
2023/10/24 06:31:28;;;;;;;9.55;2.97;;;25.00;99.90;;;;;;5078234;28;20196;-78
2023/10/24 06:33:59;;;;;;;14.07;3.83;;;25.00;99.90;;;;;;5080120;28;20606;-77
2023/10/24 06:36:34;;;;;;;11.02;3.42;;;25.00;99.90;;;;;;5080010;28;20289;-76
2023/10/24 06:39:07;;;;;;;10.10;3.65;;;24.90;99.90;;;;;;5079394;28;20196;-77
2023/10/24 06:41:40;;;;;;;15.18;3.42;;;24.80;99.90;;;;;;5077368;28;20276;-77
2023/10/24 06:44:11;;;;;;;13.40;3.22;;;24.70;99.90;;;;;;5082966;28;20189;-77
2023/10/24 06:46:42;;;;;;;14.15;3.40;;;24.60;99.90;;;;;;5082324;28;20294;-77
2023/10/24 06:49:13;;;;;;;11.95;3.17;;;24.60;99.90;;;;;;5082939;28;20205;-76
2023/10/24 06:51:47;;;;;;;16.63;3.83;;;24.50;99.90;;;;;;5081967;28;20258;-77
2023/10/24 06:54:18;;;;;;;14.27;4.20;;;24.50;99.90;;;;;;5081518;28;20650;-77
2023/10/24 06:56:51;;;;;;;13.60;3.60;;;24.40;99.90;;;;;;5084249;28;20264;-77
2023/10/24 06:59:25;;;;;;;13.25;3.75;;;24.40;99.90;;;;;;5081866;28;20229;-77
2023/10/24 07:01:56;;;;;;;16.00;3.80;;;24.40;99.90;;;;;;5084617;28;20196;-77
2023/10/24 07:04:27;;;;;;;11.50;4.10;;;24.40;99.90;;;;;;5089209;28;20189;-77
2023/10/24 07:06:58;;;;;;;13.75;3.88;;;24.30;99.90;;;;;;5084718;28;20227;-77
2023/10/24 07:09:29;;;;;;;13.32;4.20;;;24.30;99.90;;;;;;5085477;28;20192;-76
2023/10/24 07:12:02;;;;;;;16.30;4.25;;;24.30;99.90;;;;;;5085164;28;20267;-76
2023/10/24 07:14:36;;;;;;;12.27;3.85;;;24.20;99.90;;;;;;5086310;28;20228;-77
2023/10/24 07:17:06;;;;;;;13.32;3.88;;;24.20;99.90;;;;;;5086452;28;20295;-77
2023/10/24 07:19:37;;;;;;;13.90;4.10;;;24.20;99.90;;;;;;5086362;28;20189;-77
2023/10/24 07:22:08;;;;;;;12.48;4.20;;;24.10;99.90;;;;;;5084993;28;20185;-77
2023/10/24 07:24:39;;;;;;;11.30;3.80;;;24.00;99.90;;;;;;5089835;28;20210;-76
2023/10/24 07:27:11;;;;;;;9.68;4.07;;;24.00;99.90;;;;;;5079809;28;20291;-76
2023/10/24 07:29:42;;;;;;;13.85;4.18;;;23.90;99.90;;;;;;5105831;28;20633;-76
2023/10/24 07:32:13;;;;;;;14.43;4.40;;;23.90;99.90;;;;;;5096976;28;20190;-75
2023/10/24 07:34:44;;;;;;;13.82;4.15;;;23.90;99.90;;;;;;5099221;28;20290;-76
2023/10/24 07:37:15;;;;;;;14.20;4.35;;;23.80;99.90;;;;;;5111534;28;20561;-76
2023/10/24 07:39:45;;;;;;;14.98;4.10;;;23.80;99.90;;;;;;5088101;28;20660;-76
2023/10/24 07:42:18;;;;;;;10.95;3.83;;;23.80;99.90;;;;;;5093482;28;20241;-76
2023/10/24 07:44:49;;;;;;;12.43;4.38;;;23.70;99.90;;;;;;5093458;28;20232;-77
2023/10/24 07:47:20;;;;;;;14.13;4.60;;;23.60;99.90;;;;;;5075866;28;20197;-77
2023/10/24 07:49:51;;;;;;;22.00;4.65;;;23.60;99.90;;;;;;5086733;28;20188;-76
2023/10/24 07:52:22;;;;;;;10.52;4.10;;;23.60;99.90;;;;;;5103502;28;20207;-76
2023/10/24 07:54:53;;;;;;;14.13;4.78;;;23.50;99.90;;;;;;5107358;28;20220;-77
2023/10/24 07:57:27;;;;;;;19.48;4.90;;;23.50;99.90;;;;;;5087394;28;20191;-77
2023/10/24 07:59:57;;;;;;;18.63;5.00;;;23.40;99.90;;;;;;5103236;28;20231;-77
2023/10/24 08:02:28;;;;;;;14.07;4.93;;;23.30;99.90;;;;;;5091998;28;20193;-78
2023/10/24 08:04:59;;;;;;;13.57;4.82;;;23.30;99.90;;;;;;5079749;28;20196;-78
2023/10/24 08:07:30;;;;;;;17.00;4.95;;;23.20;99.90;;;;;;5084133;28;20283;-77
2023/10/24 08:10:01;;;;;;;17.45;4.95;;;23.20;99.90;;;;;;5082860;28;20369;-78
2023/10/24 08:12:33;;;;;;;14.98;4.45;;;23.10;99.90;;;;;;5083717;28;20192;-77
2023/10/24 08:15:04;;;;;;;13.13;4.63;;;23.10;99.90;;;;;;5086974;28;20219;-78
2023/10/24 08:17:35;;;;;;;14.05;4.72;;;23.10;99.90;;;;;;5080901;28;20557;-77
2023/10/24 08:20:06;;;;;;;16.55;5.05;;;23.00;99.90;;;;;;5079388;28;20272;-78
2023/10/24 08:22:37;;;;;;;15.43;4.78;;;23.00;99.90;;;;;;5089323;28;20271;-78
2023/10/24 08:25:08;;;;;;;14.77;4.63;;;23.00;99.90;;;;;;5109207;28;20195;-78
2023/10/24 08:27:42;;;;;;;17.90;4.90;;;22.90;99.90;;;;;;5083705;28;20220;-78
2023/10/24 08:30:13;;;;;;;15.90;4.55;;;22.90;99.90;;;;;;5095628;28;20306;-78
2023/10/24 08:32:44;;;;;;;14.73;4.22;;;22.80;99.90;;;;;;5096308;28;20193;-78
2023/10/24 08:35:15;;;;;;;13.13;4.22;;;22.80;99.90;;;;;;5082761;28;20218;-78
2023/10/24 08:37:47;;;;;;;16.40;4.90;;;22.80;99.90;;;;;;5082837;28;20196;-77
2023/10/24 08:40:18;;;;;;;15.23;4.55;;;22.80;99.90;;;;;;5081580;28;20201;-78
2023/10/24 08:42:50;;;;;;;16.63;4.35;;;22.80;99.90;;;;;;5087599;28;20692;-78
2023/10/24 08:45:22;;;;;;;15.35;4.70;;;22.70;99.90;;;;;;5087570;28;20643;-78
2023/10/24 08:47:54;;;;;;;16.70;4.97;;;22.70;99.90;;;;;;5084191;28;20197;-78
2023/10/24 08:50:26;;;;;;;19.50;5.38;;;22.60;99.90;;;;;;5084992;28;20193;-78
2023/10/24 08:52:57;;;;;;;16.25;4.50;;;22.60;99.90;;;;;;5086726;28;20664;-77
2023/10/24 08:55:29;;;;;;;15.45;4.82;;;22.60;99.90;;;;;;5078212;28;20301;-78
2023/10/24 08:58:02;;;;;;;16.42;4.97;;;22.60;99.90;;;;;;5077651;28;20224;-77
2023/10/24 09:00:33;;;;;;;17.58;4.80;;;22.60;99.90;;;;;;5080949;28;20323;-78
2023/10/24 09:03:04;;;;;;;17.65;4.93;;;22.50;99.90;;;;;;5077219;28;20189;-78
2023/10/24 09:05:35;;;;;;;13.38;4.80;;;22.50;99.90;;;;;;5077584;28;20562;-78
2023/10/24 09:08:06;;;;;;;14.50;4.50;;;22.50;99.90;;;;;;5080167;28;20204;-78
2023/10/24 09:10:37;;;;;;;15.55;4.80;;;22.40;99.90;;;;;;5075921;28;20207;-78
2023/10/24 09:13:10;;;;;;;16.80;4.88;;;22.40;99.90;;;;;;5073269;28;20234;-78
2023/10/24 09:15:41;;;;;;;13.57;4.90;;;22.40;99.90;;;;;;5076515;28;20216;-78
2023/10/24 09:18:11;;;;;;;16.42;4.95;;;22.30;99.90;;;;;;5072981;28;20197;-75
2023/10/24 09:20:43;;;;;;;16.67;4.88;;;22.30;99.90;;;;;;5091013;28;20211;-75
2023/10/24 09:23:14;;;;;;;10.77;4.40;;;22.30;99.90;;;;;;5081630;28;20220;-78
2023/10/24 09:25:44;;;;;;;14.15;4.43;;;22.30;99.90;;;;;;5077375;28;20204;-78
2023/10/24 09:28:21;;;;;;;11.52;4.70;;;22.20;99.90;;;;;;5072949;28;20221;-78
2023/10/24 09:30:52;;;;;;;16.55;4.82;;;22.20;99.90;;;;;;5082008;28;20189;-78
2023/10/24 09:33:23;;;;;;;11.55;4.40;;;22.20;99.90;;;;;;5094050;28;20366;-78
2023/10/24 09:35:56;;;;;;;19.92;4.78;;;22.20;99.90;;;;;;5095415;28;20211;-78
2023/10/24 09:38:27;;;;;;;14.13;4.40;;;22.20;99.90;;;;;;5077099;28;20193;-78
2023/10/24 09:40:58;;;;;;;17.30;5.05;;;22.10;99.90;;;;;;5086785;28;20644;-78
2023/10/24 09:43:34;;;;;;;12.55;4.45;;;22.10;99.90;;;;;;5089932;28;20211;-77
2023/10/24 09:46:07;;;;;;;15.85;4.80;;;22.00;99.90;;;;;;5097276;28;20194;-77
2023/10/24 09:48:44;;;;;;;13.93;4.57;;;22.00;99.90;;;;;;5094677;28;20199;-78
2023/10/24 09:51:17;;;;;;;15.05;4.95;;;21.90;99.90;;;;;;5076111;28;20306;-77
2023/10/24 09:53:48;;;;;;;16.65;4.55;;;21.90;99.90;;;;;;5091962;28;20203;-77
2023/10/24 09:56:20;;;;;;;13.07;4.10;;;21.90;99.90;;;;;;5083858;28;20574;-77
2023/10/24 09:58:53;;;;;;;13.43;4.10;;;21.90;99.90;;;;;;5074843;28;20250;-78
2023/10/24 10:01:24;;;;;;;13.65;3.85;;;21.90;99.90;;;;;;5075271;28;20201;-78
2023/10/24 10:04:00;;;;;;;15.63;4.40;;;21.80;99.90;;;;;;5076585;28;20201;-77
2023/10/24 10:06:31;;;;;;;16.48;4.38;;;21.80;99.90;;;;;;5087804;28;20198;-77
2023/10/24 10:09:03;;;;;;;13.15;4.57;;;21.80;99.90;;;;;;5078642;28;20219;-78
2023/10/24 10:11:35;;;;;;;14.57;4.30;;;21.80;99.90;;;;;;5086341;28;20649;-78
2023/10/24 10:14:18;;;;;;;12.70;4.40;;;21.80;99.90;;;;;;5085292;28;20716;-77
2023/10/24 10:16:59;;;;;;;14.32;4.55;;;21.80;99.90;;;;;;5077753;28;20554;-77
2023/10/24 10:20:00;;;;;;;17.05;4.97;;;21.70;99.90;;;;;;5086151;28;20663;-77
2023/10/24 10:22:47;;;;;;;12.70;4.43;;;21.70;99.90;;;;;;5080939;28;20204;-77
2023/10/24 10:25:53;;;;;;;11.00;4.18;;;21.70;99.90;;;;;;5077679;28;20203;-77
2023/10/24 10:28:39;;;;;;;11.40;4.00;;;21.70;99.90;;;;;;5081205;28;20300;-78
2023/10/24 10:31:23;;;;;;;17.27;4.47;;;21.60;99.90;;;;;;5080914;28;20203;-77
2023/10/24 10:33:55;;;;;;;15.18;4.25;;;21.60;99.90;;;;;;5076806;28;20196;-77
2023/10/24 10:36:28;;;;;;;14.45;4.32;;;21.50;99.90;;;;;;5078727;28;20704;-77
2023/10/24 10:39:05;;;;;;;17.98;4.72;;;21.50;99.90;;;;;;5077737;28;20193;-79
2023/10/24 10:41:44;;;;;;;11.82;4.95;;;21.50;99.90;;;;;;5086778;28;20200;-78
2023/10/24 10:44:43;;;;;;;15.45;4.45;;;21.40;99.90;;;;;;5077282;28;20668;-78
2023/10/24 10:47:18;;;;;;;15.63;4.63;;;21.40;99.90;;;;;;5078405;28;20202;-78
2023/10/24 10:49:56;;;;;;;19.63;5.03;;;21.40;99.90;;;;;;5075204;28;20204;-78
2023/10/24 10:52:47;;;;;;;12.32;4.28;;;21.40;99.90;;;;;;5075799;28;20206;-78
2023/10/24 10:55:40;;;;;;;13.15;4.13;;;21.40;99.90;;;;;;5076064;28;20189;-78
2023/10/24 10:58:26;;;;;;;15.82;5.15;;;21.30;99.90;;;;;;5073890;28;20211;-79
2023/10/24 11:01:03;;;;;;;14.55;4.85;;;21.30;99.90;;;;;;5073627;28;20197;-79
2023/10/24 11:03:47;;;;;;;18.08;5.05;;;21.30;99.90;;;;;;5081994;28;20199;-78
2023/10/24 11:06:19;;;;;;;17.63;5.20;;;21.30;99.90;;;;;;5072822;28;20223;-78
2023/10/24 11:09:07;;;;;;;21.48;5.82;;;21.20;99.90;;;;;;5079968;28;20621;-79
2023/10/24 11:11:39;;;;;;;19.88;5.25;;;21.20;99.90;;;;;;5083022;28;20199;-77
2023/10/24 11:14:20;;;;;;;14.57;4.80;;;21.20;99.90;;;;;;5081943;28;20637;-78
2023/10/24 11:16:53;;;;;;;15.63;5.00;;;21.20;99.90;;;;;;5072974;28;20626;-78
2023/10/24 11:19:26;;;;;;;17.30;5.07;;;21.20;99.90;;;;;;5082741;28;20231;-78
2023/10/24 11:21:57;;;;;;;17.98;5.00;;;21.10;99.90;;;;;;5073291;28;20258;-78
2023/10/24 11:24:29;;;;;;;20.95;5.03;;;21.10;99.90;;;;;;5083463;28;20198;-79
2023/10/24 11:27:04;;;;;;;14.45;4.80;;;21.10;99.90;;;;;;5082403;28;20212;-79
2023/10/24 11:29:36;;;;;;;16.48;4.63;;;21.10;99.90;;;;;;5089057;28;20202;-80
2023/10/24 11:32:07;;;;;;;16.73;4.60;;;21.10;99.90;;;;;;5085739;28;20656;-78
2023/10/24 11:34:40;;;;;;;15.70;4.57;;;21.10;99.90;;;;;;5086149;28;20196;-79
2023/10/24 11:37:12;;;;;;;14.20;4.75;;;21.00;99.90;;;;;;5078141;28;20207;-78
2023/10/24 11:39:45;;;;;;;17.52;5.07;;;21.00;99.90;;;;;;5079279;28;20200;-78
2023/10/24 11:42:16;;;;;;;16.38;4.72;;;21.00;99.90;;;;;;5081029;28;20675;-77
2023/10/24 11:44:47;;;;;;;14.52;5.15;;;21.00;99.90;;;;;;5079794;28;20200;-77
2023/10/24 11:47:19;;;;;;;13.48;4.75;;;20.90;99.90;;;;;;5078775;28;20287;-78
2023/10/24 11:49:52;;;;;;;14.70;4.65;;;20.90;99.90;;;;;;5076048;28;20296;-78
2023/10/24 11:52:23;;;;;;;18.42;5.30;;;20.80;99.90;;;;;;5077023;28;20197;-78
2023/10/24 11:54:55;;;;;;;15.57;5.22;;;20.80;99.90;;;;;;5082481;28;20198;-80
2023/10/24 11:57:27;;;;;;;20.02;5.25;;;20.80;99.90;;;;;;5077379;28;20225;-79
2023/10/24 11:59:57;;;;;;;13.85;5.20;;;20.80;99.90;;;;;;5078367;28;20247;-78
2023/10/24 12:02:28;;;;;;;11.38;4.78;;;20.70;99.90;;;;;;5088365;28;20279;-78
2023/10/24 12:05:03;;;;;;;18.48;5.53;;;20.60;99.90;;;;;;5081132;28;20203;-78
2023/10/24 12:07:34;;;;;;;15.02;4.85;;;20.60;99.90;;;;;;5073627;28;20200;-78
2023/10/24 12:10:12;;;;;;;18.10;5.10;;;20.60;99.90;;;;;;5082597;28;20206;-78
2023/10/24 12:12:46;;;;;;;16.10;5.18;;;20.60;99.90;;;;;;5086684;28;20196;-78
2023/10/24 12:15:19;;;;;;;18.83;5.78;;;20.60;99.90;;;;;;5078545;28;20195;-80
2023/10/24 12:17:50;;;;;;;19.73;5.82;;;20.50;99.90;;;;;;5072629;28;20251;-78
2023/10/24 12:20:23;;;;;;;15.75;5.43;;;20.50;99.90;;;;;;5073645;28;20189;-79
2023/10/24 12:22:53;;;;;;;21.15;6.50;;;20.50;99.90;;;;;;5073722;28;20284;-78
2023/10/24 12:25:24;;;;;;;18.98;6.30;;;20.40;99.90;;;;;;5087294;28;20195;-78
2023/10/24 12:27:55;;;;;;;16.45;6.05;;;20.40;99.90;;;;;;5078697;28;20224;-78
2023/10/24 12:30:26;;;;;;;14.13;5.82;;;20.40;99.90;;;;;;5072490;28;20205;-79
2023/10/24 12:32:57;;;;;;;18.67;5.88;;;20.40;99.90;;;;;;5086929;28;20220;-79
2023/10/24 12:35:30;;;;;;;18.98;5.90;;;20.40;99.90;;;;;;5073611;28;20220;-79
2023/10/24 12:38:01;;;;;;;14.85;5.88;;;20.40;99.90;;;;;;5073417;28;20680;-79
2023/10/24 12:40:32;;;;;;;18.70;5.43;;;20.30;99.90;;;;;;5074742;28;20556;-79
2023/10/24 12:43:02;;;;;;;19.35;5.70;;;20.30;99.90;;;;;;5081502;28;20205;-79
2023/10/24 12:45:33;;;;;;;16.30;5.70;;;20.20;99.90;;;;;;5071394;28;20193;-79
2023/10/24 12:48:10;;;;;;;18.58;5.50;;;20.20;99.90;;;;;;5072533;28;20219;-79
2023/10/24 12:50:43;;;;;;;14.57;5.45;;;20.10;99.90;;;;;;5080914;28;20640;-80
2023/10/24 12:53:14;;;;;;;13.65;4.95;;;20.00;99.90;;;;;;5080603;28;20203;-79
2023/10/24 12:55:45;;;;;;;13.15;4.85;;;20.00;99.90;;;;;;5080908;28;20611;-79
2023/10/24 12:58:16;;;;;;;19.10;5.30;;;20.00;99.90;;;;;;5081787;28;20211;-79
2023/10/24 13:00:48;;;;;;;16.60;5.65;;;19.90;99.90;;;;;;5080040;28;20587;-79
2023/10/24 13:03:18;;;;;;;18.52;4.97;;;19.90;99.90;;;;;;5080824;28;20193;-79
2023/10/24 13:05:51;;;;;;;16.63;4.95;;;19.90;99.90;;;;;;5080186;28;20191;-79
2023/10/24 13:08:22;;;;;;;13.93;5.20;;;19.80;99.90;;;;;;5071906;28;20200;-78